sensor_id;sensor_type;location;lat;lon;timestamp;temperature;humidity
1391;DHT22;690;51.454;7.194;2024-03-17T00:00:06;3.90;99.90
1391;DHT22;690;51.454;7.194;2024-03-17T00:02:35;3.80;99.90
1391;DHT22;690;51.454;7.194;2024-03-17T00:05:03;3.80;99.90
1391;DHT22;690;51.454;7.194;2024-03-17T00:07:31;3.80;99.90
1391;DHT22;690;51.454;7.194;2024-03-17T00:09:57;3.80;99.90
1391;DHT22;690;51.454;7.194;2024-03-17T00:12:24;3.80;99.90
1391;DHT22;690;51.454;7.194;2024-03-17T00:14:50;3.70;99.90
1391;DHT22;690;51.454;7.194;2024-03-17T00:17:16;3.70;99.90
1391;DHT22;690;51.454;7.194;2024-03-17T00:19:45;3.70;99.90
1391;DHT22;690;51.454;7.194;2024-03-17T00:22:12;3.70;99.90
1391;DHT22;690;51.454;7.194;2024-03-17T00:24:41;3.70;99.90
1391;DHT22;690;51.454;7.194;2024-03-17T00:27:10;3.70;99.90
1391;DHT22;690;51.454;7.194;2024-03-17T00:29:37;3.60;99.90
1391;DHT22;690;51.454;7.194;2024-03-17T00:32:04;3.60;99.90
1391;DHT22;690;51.454;7.194;2024-03-17T00:34:30;3.60;99.90
1391;DHT22;690;51.454;7.194;2024-03-17T00:36:57;3.60;99.90
1391;DHT22;690;51.454;7.194;2024-03-17T00:39:25;3.50;99.90
1391;DHT22;690;51.454;7.194;2024-03-17T00:41:54;3.50;99.90
1391;DHT22;690;51.454;7.194;2024-03-17T00:44:20;3.50;99.90
1391;DHT22;690;51.454;7.194;2024-03-17T00:46:47;3.40;99.90
1391;DHT22;690;51.454;7.194;2024-03-17T00:49:13;3.40;99.90
1391;DHT22;690;51.454;7.194;2024-03-17T00:51:40;3.40;99.90
1391;DHT22;690;51.454;7.194;2024-03-17T00:54:06;3.40;99.90
1391;DHT22;690;51.454;7.194;2024-03-17T00:56:33;3.30;99.90
1391;DHT22;690;51.454;7.194;2024-03-17T00:59:00;3.30;99.90
1391;DHT22;690;51.454;7.194;2024-03-17T01:01:27;3.30;99.90
1391;DHT22;690;51.454;7.194;2024-03-17T01:03:53;3.20;99.90
1391;DHT22;690;51.454;7.194;2024-03-17T01:06:20;3.20;99.90
1391;DHT22;690;51.454;7.194;2024-03-17T01:08:46;3.20;99.90
1391;DHT22;690;51.454;7.194;2024-03-17T01:11:15;3.10;99.90
1391;DHT22;690;51.454;7.194;2024-03-17T01:13:42;3.10;99.90
1391;DHT22;690;51.454;7.194;2024-03-17T01:16:10;3.10;1.00
1391;DHT22;690;51.454;7.194;2024-03-17T01:18:36;3.10;1.00
1391;DHT22;690;51.454;7.194;2024-03-17T01:21:03;3.00;1.00
1391;DHT22;690;51.454;7.194;2024-03-17T01:23:29;3.00;1.00
1391;DHT22;690;51.454;7.194;2024-03-17T01:25:56;3.00;1.00
1391;DHT22;690;51.454;7.194;2024-03-17T01:28:22;3.00;1.00
1391;DHT22;690;51.454;7.194;2024-03-17T01:30:49;2.90;1.00
1391;DHT22;690;51.454;7.194;2024-03-17T01:33:16;2.90;1.00
1391;DHT22;690;51.454;7.194;2024-03-17T01:35:43;2.80;1.00
1391;DHT22;690;51.454;7.194;2024-03-17T01:38:09;2.80;1.00
1391;DHT22;690;51.454;7.194;2024-03-17T01:40:36;2.80;1.00
1391;DHT22;690;51.454;7.194;2024-03-17T01:43:02;2.70;1.00
1391;DHT22;690;51.454;7.194;2024-03-17T01:45:31;2.70;1.00
1391;DHT22;690;51.454;7.194;2024-03-17T01:47:58;2.70;1.00
1391;DHT22;690;51.454;7.194;2024-03-17T01:50:29;2.60;1.00
1391;DHT22;690;51.454;7.194;2024-03-17T01:52:59;2.60;1.00
1391;DHT22;690;51.454;7.194;2024-03-17T01:55:27;2.60;1.00
1391;DHT22;690;51.454;7.194;2024-03-17T01:57:54;2.60;1.00
1391;DHT22;690;51.454;7.194;2024-03-17T02:00:21;2.60;1.00
1391;DHT22;690;51.454;7.194;2024-03-17T02:02:47;2.50;1.00
1391;DHT22;690;51.454;7.194;2024-03-17T02:05:14;2.50;1.00
1391;DHT22;690;51.454;7.194;2024-03-17T02:07:41;2.50;1.00
1391;DHT22;690;51.454;7.194;2024-03-17T02:10:08;2.50;1.00
1391;DHT22;690;51.454;7.194;2024-03-17T02:12:35;2.50;1.00
1391;DHT22;690;51.454;7.194;2024-03-17T02:15:02;2.50;1.00
1391;DHT22;690;51.454;7.194;2024-03-17T02:17:31;2.60;1.00
1391;DHT22;690;51.454;7.194;2024-03-17T02:19:58;2.60;1.00
1391;DHT22;690;51.454;7.194;2024-03-17T02:22:25;2.60;1.00
1391;DHT22;690;51.454;7.194;2024-03-17T02:24:53;2.60;1.00
1391;DHT22;690;51.454;7.194;2024-03-17T02:27:19;2.60;1.00
1391;DHT22;690;51.454;7.194;2024-03-17T02:29:46;2.60;1.00
1391;DHT22;690;51.454;7.194;2024-03-17T02:32:11;2.60;1.00
1391;DHT22;690;51.454;7.194;2024-03-17T02:34:38;2.70;1.00
1391;DHT22;690;51.454;7.194;2024-03-17T02:37:05;2.70;1.00
1391;DHT22;690;51.454;7.194;2024-03-17T02:39:34;2.80;1.00
1391;DHT22;690;51.454;7.194;2024-03-17T02:42:01;2.80;1.00
1391;DHT22;690;51.454;7.194;2024-03-17T02:44:29;2.90;1.00
1391;DHT22;690;51.454;7.194;2024-03-17T02:46:56;2.90;1.00
1391;DHT22;690;51.454;7.194;2024-03-17T02:49:23;2.90;1.00
1391;DHT22;690;51.454;7.194;2024-03-17T02:51:50;2.90;1.00
1391;DHT22;690;51.454;7.194;2024-03-17T02:54:17;2.90;1.00
1391;DHT22;690;51.454;7.194;2024-03-17T02:56:45;2.90;1.00
1391;DHT22;690;51.454;7.194;2024-03-17T02:59:12;2.90;1.00
1391;DHT22;690;51.454;7.194;2024-03-17T03:01:39;2.90;1.00
1391;DHT22;690;51.454;7.194;2024-03-17T03:04:05;2.90;1.00
1391;DHT22;690;51.454;7.194;2024-03-17T03:06:33;3.00;1.00
1391;DHT22;690;51.454;7.194;2024-03-17T03:09:00;3.00;1.00
1391;DHT22;690;51.454;7.194;2024-03-17T03:11:27;3.00;1.00
1391;DHT22;690;51.454;7.194;2024-03-17T03:13:55;3.00;1.00
1391;DHT22;690;51.454;7.194;2024-03-17T03:16:22;3.00;1.00
1391;DHT22;690;51.454;7.194;2024-03-17T03:18:50;3.00;1.00
1391;DHT22;690;51.454;7.194;2024-03-17T03:21:17;2.90;1.00
1391;DHT22;690;51.454;7.194;2024-03-17T03:23:44;2.90;1.00
1391;DHT22;690;51.454;7.194;2024-03-17T03:26:12;2.90;1.00
1391;DHT22;690;51.454;7.194;2024-03-17T03:28:39;2.90;1.00
1391;DHT22;690;51.454;7.194;2024-03-17T03:31:10;2.90;1.00
1391;DHT22;690;51.454;7.194;2024-03-17T03:33:39;2.90;1.00
1391;DHT22;690;51.454;7.194;2024-03-17T03:36:10;2.90;1.00
1391;DHT22;690;51.454;7.194;2024-03-17T03:38:37;2.80;1.00
1391;DHT22;690;51.454;7.194;2024-03-17T03:41:08;2.80;1.00
1391;DHT22;690;51.454;7.194;2024-03-17T03:43:35;2.80;1.00
1391;DHT22;690;51.454;7.194;2024-03-17T03:46:04;2.80;1.00
1391;DHT22;690;51.454;7.194;2024-03-17T03:48:32;2.80;1.00
1391;DHT22;690;51.454;7.194;2024-03-17T03:51:03;2.80;1.00
1391;DHT22;690;51.454;7.194;2024-03-17T03:53:31;2.70;1.00
1391;DHT22;690;51.454;7.194;2024-03-17T03:55:58;2.70;1.00
1391;DHT22;690;51.454;7.194;2024-03-17T03:58:27;2.70;1.00
1391;DHT22;690;51.454;7.194;2024-03-17T04:00:54;2.70;1.00
1391;DHT22;690;51.454;7.194;2024-03-17T04:03:21;2.70;1.00
1391;DHT22;690;51.454;7.194;2024-03-17T04:05:50;2.70;1.00
1391;DHT22;690;51.454;7.194;2024-03-17T04:08:19;2.70;1.00
1391;DHT22;690;51.454;7.194;2024-03-17T04:10:49;2.70;1.00
1391;DHT22;690;51.454;7.194;2024-03-17T04:13:17;2.70;1.00
1391;DHT22;690;51.454;7.194;2024-03-17T04:15:44;2.70;1.00
1391;DHT22;690;51.454;7.194;2024-03-17T04:18:11;2.70;1.00
1391;DHT22;690;51.454;7.194;2024-03-17T04:20:40;2.80;1.00
1391;DHT22;690;51.454;7.194;2024-03-17T04:23:08;2.70;1.00
1391;DHT22;690;51.454;7.194;2024-03-17T04:25:35;2.80;1.00
1391;DHT22;690;51.454;7.194;2024-03-17T04:28:03;2.80;1.00
1391;DHT22;690;51.454;7.194;2024-03-17T04:30:30;2.80;1.00
1391;DHT22;690;51.454;7.194;2024-03-17T04:32:58;2.80;1.00
1391;DHT22;690;51.454;7.194;2024-03-17T04:35:25;2.90;1.00
1391;DHT22;690;51.454;7.194;2024-03-17T04:37:52;2.90;1.00
1391;DHT22;690;51.454;7.194;2024-03-17T04:40:20;3.00;1.00
1391;DHT22;690;51.454;7.194;2024-03-17T04:42:48;3.00;1.00
1391;DHT22;690;51.454;7.194;2024-03-17T04:45:13;3.10;1.00
1391;DHT22;690;51.454;7.194;2024-03-17T04:47:40;3.10;1.00
1391;DHT22;690;51.454;7.194;2024-03-17T04:50:08;3.20;1.00
1391;DHT22;690;51.454;7.194;2024-03-17T04:52:35;3.10;1.00
1391;DHT22;690;51.454;7.194;2024-03-17T04:55:02;3.20;1.00
1391;DHT22;690;51.454;7.194;2024-03-17T04:57:30;3.20;1.00
1391;DHT22;690;51.454;7.194;2024-03-17T04:59:57;3.20;1.00
1391;DHT22;690;51.454;7.194;2024-03-17T05:02:24;3.20;1.00
1391;DHT22;690;51.454;7.194;2024-03-17T05:04:51;3.20;1.00
1391;DHT22;690;51.454;7.194;2024-03-17T05:07:19;3.20;1.00
1391;DHT22;690;51.454;7.194;2024-03-17T05:09:45;3.20;1.00
1391;DHT22;690;51.454;7.194;2024-03-17T05:12:12;3.20;1.00
1391;DHT22;690;51.454;7.194;2024-03-17T05:14:40;3.20;1.00
1391;DHT22;690;51.454;7.194;2024-03-17T05:17:07;3.10;1.00
1391;DHT22;690;51.454;7.194;2024-03-17T05:19:34;3.10;1.00
1391;DHT22;690;51.454;7.194;2024-03-17T05:22:01;3.00;1.00
1391;DHT22;690;51.454;7.194;2024-03-17T05:24:28;3.00;1.00
1391;DHT22;690;51.454;7.194;2024-03-17T05:26:55;2.90;1.00
1391;DHT22;690;51.454;7.194;2024-03-17T05:29:22;2.90;1.00
1391;DHT22;690;51.454;7.194;2024-03-17T05:31:50;2.90;1.00
1391;DHT22;690;51.454;7.194;2024-03-17T05:34:17;2.90;1.00
1391;DHT22;690;51.454;7.194;2024-03-17T05:36:44;2.80;1.00
1391;DHT22;690;51.454;7.194;2024-03-17T05:39:12;2.80;1.00
1391;DHT22;690;51.454;7.194;2024-03-17T05:41:39;2.80;1.00
1391;DHT22;690;51.454;7.194;2024-03-17T05:44:07;2.80;1.00
1391;DHT22;690;51.454;7.194;2024-03-17T05:46:33;2.80;1.00
1391;DHT22;690;51.454;7.194;2024-03-17T05:49:02;2.70;1.00
1391;DHT22;690;51.454;7.194;2024-03-17T05:51:29;2.80;1.00
1391;DHT22;690;51.454;7.194;2024-03-17T05:53:56;2.70;1.00
1391;DHT22;690;51.454;7.194;2024-03-17T05:56:24;2.70;1.00
1391;DHT22;690;51.454;7.194;2024-03-17T05:58:51;2.70;1.00
1391;DHT22;690;51.454;7.194;2024-03-17T06:01:18;2.70;1.00
1391;DHT22;690;51.454;7.194;2024-03-17T06:03:45;2.70;1.00
1391;DHT22;690;51.454;7.194;2024-03-17T06:06:13;2.80;1.00
1391;DHT22;690;51.454;7.194;2024-03-17T06:08:40;2.80;1.00
1391;DHT22;690;51.454;7.194;2024-03-17T06:11:07;2.80;1.00
1391;DHT22;690;51.454;7.194;2024-03-17T06:13:34;2.90;1.00
1391;DHT22;690;51.454;7.194;2024-03-17T06:16:02;2.90;1.00
1391;DHT22;690;51.454;7.194;2024-03-17T06:18:30;3.00;1.00
1391;DHT22;690;51.454;7.194;2024-03-17T06:20:57;3.00;1.00
1391;DHT22;690;51.454;7.194;2024-03-17T06:23:26;3.00;1.00
1391;DHT22;690;51.454;7.194;2024-03-17T06:25:54;3.10;1.00
1391;DHT22;690;51.454;7.194;2024-03-17T06:28:21;3.20;1.00
1391;DHT22;690;51.454;7.194;2024-03-17T06:30:55;3.20;1.00
1391;DHT22;690;51.454;7.194;2024-03-17T06:33:22;3.30;1.00
1391;DHT22;690;51.454;7.194;2024-03-17T06:35:49;3.30;1.00
1391;DHT22;690;51.454;7.194;2024-03-17T06:38:16;3.40;1.00
1391;DHT22;690;51.454;7.194;2024-03-17T06:40:49;3.60;1.00
1391;DHT22;690;51.454;7.194;2024-03-17T06:43:16;3.60;1.00
1391;DHT22;690;51.454;7.194;2024-03-17T06:45:43;3.70;1.00
1391;DHT22;690;51.454;7.194;2024-03-17T06:48:10;3.80;1.00
1391;DHT22;690;51.454;7.194;2024-03-17T06:50:38;3.80;1.00
1391;DHT22;690;51.454;7.194;2024-03-17T06:53:07;4.00;1.00
1391;DHT22;690;51.454;7.194;2024-03-17T06:55:35;4.00;1.00
1391;DHT22;690;51.454;7.194;2024-03-17T06:58:03;4.10;1.00
1391;DHT22;690;51.454;7.194;2024-03-17T07:00:30;4.20;1.00
1391;DHT22;690;51.454;7.194;2024-03-17T07:02:57;4.30;1.00
1391;DHT22;690;51.454;7.194;2024-03-17T07:05:25;4.40;1.00
1391;DHT22;690;51.454;7.194;2024-03-17T07:07:52;4.50;1.00
1391;DHT22;690;51.454;7.194;2024-03-17T07:10:18;4.60;1.00
1391;DHT22;690;51.454;7.194;2024-03-17T07:12:45;4.70;1.00
1391;DHT22;690;51.454;7.194;2024-03-17T07:15:14;4.80;1.00
1391;DHT22;690;51.454;7.194;2024-03-17T07:17:41;4.90;1.00
1391;DHT22;690;51.454;7.194;2024-03-17T07:20:08;5.00;1.00
1391;DHT22;690;51.454;7.194;2024-03-17T07:22:38;5.00;1.00
1391;DHT22;690;51.454;7.194;2024-03-17T07:25:05;5.10;1.00
1391;DHT22;690;51.454;7.194;2024-03-17T07:27:32;5.20;1.00
1391;DHT22;690;51.454;7.194;2024-03-17T07:29:59;5.40;1.00
1391;DHT22;690;51.454;7.194;2024-03-17T07:32:27;5.60;1.00
1391;DHT22;690;51.454;7.194;2024-03-17T07:34:54;5.80;1.00
1391;DHT22;690;51.454;7.194;2024-03-17T07:37:21;6.00;1.00
1391;DHT22;690;51.454;7.194;2024-03-17T07:39:48;6.10;1.00
1391;DHT22;690;51.454;7.194;2024-03-17T07:42:15;6.30;1.00
1391;DHT22;690;51.454;7.194;2024-03-17T07:44:44;6.50;1.00
1391;DHT22;690;51.454;7.194;2024-03-17T07:47:11;6.60;1.00
1391;DHT22;690;51.454;7.194;2024-03-17T07:49:39;6.70;1.00
1391;DHT22;690;51.454;7.194;2024-03-17T07:52:06;6.90;1.00
1391;DHT22;690;51.454;7.194;2024-03-17T07:54:33;7.10;1.00
1391;DHT22;690;51.454;7.194;2024-03-17T07:57:00;7.20;1.00
1391;DHT22;690;51.454;7.194;2024-03-17T07:59:28;7.30;1.00
1391;DHT22;690;51.454;7.194;2024-03-17T08:01:56;7.50;1.00
1391;DHT22;690;51.454;7.194;2024-03-17T08:04:23;7.60;1.00
1391;DHT22;690;51.454;7.194;2024-03-17T08:06:51;7.80;99.90
1391;DHT22;690;51.454;7.194;2024-03-17T08:09:18;7.90;99.90
1391;DHT22;690;51.454;7.194;2024-03-17T08:11:45;8.00;99.90
1391;DHT22;690;51.454;7.194;2024-03-17T08:14:13;8.10;99.90
1391;DHT22;690;51.454;7.194;2024-03-17T08:16:40;8.20;99.90
1391;DHT22;690;51.454;7.194;2024-03-17T08:19:07;8.40;99.90
1391;DHT22;690;51.454;7.194;2024-03-17T08:21:34;8.50;99.90
1391;DHT22;690;51.454;7.194;2024-03-17T08:24:03;8.60;99.90
1391;DHT22;690;51.454;7.194;2024-03-17T08:26:30;8.70;99.90
1391;DHT22;690;51.454;7.194;2024-03-17T08:28:57;8.70;99.90
1391;DHT22;690;51.454;7.194;2024-03-17T08:31:24;8.80;99.90
1391;DHT22;690;51.454;7.194;2024-03-17T08:33:50;8.90;99.90
1391;DHT22;690;51.454;7.194;2024-03-17T08:36:18;9.10;99.90
1391;DHT22;690;51.454;7.194;2024-03-17T08:38:46;9.30;99.90
1391;DHT22;690;51.454;7.194;2024-03-17T08:41:15;9.40;99.90
1391;DHT22;690;51.454;7.194;2024-03-17T08:43:42;9.50;99.90
1391;DHT22;690;51.454;7.194;2024-03-17T08:46:10;9.60;99.90
1391;DHT22;690;51.454;7.194;2024-03-17T08:48:40;9.70;99.90
1391;DHT22;690;51.454;7.194;2024-03-17T08:51:07;9.70;99.90
1391;DHT22;690;51.454;7.194;2024-03-17T08:53:35;9.80;99.90
1391;DHT22;690;51.454;7.194;2024-03-17T08:56:04;9.80;99.90
1391;DHT22;690;51.454;7.194;2024-03-17T08:58:33;9.80;99.90
1391;DHT22;690;51.454;7.194;2024-03-17T09:01:03;9.90;99.90
1391;DHT22;690;51.454;7.194;2024-03-17T09:03:32;10.00;99.90
1391;DHT22;690;51.454;7.194;2024-03-17T09:05:59;10.10;99.90
1391;DHT22;690;51.454;7.194;2024-03-17T09:08:26;10.30;99.90
1391;DHT22;690;51.454;7.194;2024-03-17T09:10:54;10.40;99.90
1391;DHT22;690;51.454;7.194;2024-03-17T09:13:22;10.50;99.90
1391;DHT22;690;51.454;7.194;2024-03-17T09:15:53;10.60;99.90
1391;DHT22;690;51.454;7.194;2024-03-17T09:18:20;10.70;99.90
1391;DHT22;690;51.454;7.194;2024-03-17T09:20:56;10.70;99.90
1391;DHT22;690;51.454;7.194;2024-03-17T09:23:23;10.70;99.90
1391;DHT22;690;51.454;7.194;2024-03-17T09:25:55;10.80;99.90
1391;DHT22;690;51.454;7.194;2024-03-17T09:28:22;10.90;99.90
1391;DHT22;690;51.454;7.194;2024-03-17T09:30:49;11.00;99.90
1391;DHT22;690;51.454;7.194;2024-03-17T09:33:19;11.10;99.90
1391;DHT22;690;51.454;7.194;2024-03-17T09:35:53;11.20;99.90
1391;DHT22;690;51.454;7.194;2024-03-17T09:38:20;11.20;99.90
1391;DHT22;690;51.454;7.194;2024-03-17T09:40:48;11.30;99.90
1391;DHT22;690;51.454;7.194;2024-03-17T09:43:16;11.40;99.90
1391;DHT22;690;51.454;7.194;2024-03-17T09:45:44;11.50;99.90
1391;DHT22;690;51.454;7.194;2024-03-17T09:48:14;11.60;99.90
1391;DHT22;690;51.454;7.194;2024-03-17T09:50:45;11.70;99.90
1391;DHT22;690;51.454;7.194;2024-03-17T09:53:15;11.70;99.90
1391;DHT22;690;51.454;7.194;2024-03-17T09:55:42;11.80;99.90
1391;DHT22;690;51.454;7.194;2024-03-17T09:58:15;12.00;99.90
1391;DHT22;690;51.454;7.194;2024-03-17T10:00:43;12.30;99.90
1391;DHT22;690;51.454;7.194;2024-03-17T10:03:10;12.50;99.90
1391;DHT22;690;51.454;7.194;2024-03-17T10:05:38;12.70;99.90
1391;DHT22;690;51.454;7.194;2024-03-17T10:08:06;12.90;99.90
1391;DHT22;690;51.454;7.194;2024-03-17T10:10:52;13.10;99.90
1391;DHT22;690;51.454;7.194;2024-03-17T10:13:19;13.20;99.90
1391;DHT22;690;51.454;7.194;2024-03-17T10:15:48;13.30;99.90
1391;DHT22;690;51.454;7.194;2024-03-17T10:18:20;13.40;99.90
1391;DHT22;690;51.454;7.194;2024-03-17T10:20:48;13.30;99.90
1391;DHT22;690;51.454;7.194;2024-03-17T10:23:19;13.30;99.90
1391;DHT22;690;51.454;7.194;2024-03-17T10:25:46;13.30;99.90
1391;DHT22;690;51.454;7.194;2024-03-17T10:28:14;13.30;99.90
1391;DHT22;690;51.454;7.194;2024-03-17T10:30:42;13.30;99.90
1391;DHT22;690;51.454;7.194;2024-03-17T10:33:24;13.40;99.90
1391;DHT22;690;51.454;7.194;2024-03-17T10:35:58;13.40;99.90
1391;DHT22;690;51.454;7.194;2024-03-17T10:38:27;13.50;99.90
1391;DHT22;690;51.454;7.194;2024-03-17T10:40:54;13.60;99.90
1391;DHT22;690;51.454;7.194;2024-03-17T10:43:21;13.60;99.90
1391;DHT22;690;51.454;7.194;2024-03-17T10:45:52;13.70;99.90
1391;DHT22;690;51.454;7.194;2024-03-17T10:48:21;13.70;99.90
1391;DHT22;690;51.454;7.194;2024-03-17T10:50:50;13.90;99.90
1391;DHT22;690;51.454;7.194;2024-03-17T10:53:20;13.90;99.90
1391;DHT22;690;51.454;7.194;2024-03-17T10:56:03;14.10;99.90
1391;DHT22;690;51.454;7.194;2024-03-17T10:58:34;14.30;99.90
1391;DHT22;690;51.454;7.194;2024-03-17T11:01:03;14.30;99.90
1391;DHT22;690;51.454;7.194;2024-03-17T11:03:32;14.30;99.90
1391;DHT22;690;51.454;7.194;2024-03-17T11:06:00;14.50;99.90
1391;DHT22;690;51.454;7.194;2024-03-17T11:08:30;14.70;99.90
1391;DHT22;690;51.454;7.194;2024-03-17T11:10:59;14.80;99.90
1391;DHT22;690;51.454;7.194;2024-03-17T11:13:28;14.90;99.90
1391;DHT22;690;51.454;7.194;2024-03-17T11:15:55;15.00;99.90
1391;DHT22;690;51.454;7.194;2024-03-17T11:18:37;15.10;99.90
1391;DHT22;690;51.454;7.194;2024-03-17T11:21:21;15.20;99.90
1391;DHT22;690;51.454;7.194;2024-03-17T11:23:58;15.20;99.90
1391;DHT22;690;51.454;7.194;2024-03-17T11:26:32;15.30;99.90
1391;DHT22;690;51.454;7.194;2024-03-17T11:28:59;15.30;99.90
1391;DHT22;690;51.454;7.194;2024-03-17T11:31:36;15.30;99.90
1391;DHT22;690;51.454;7.194;2024-03-17T11:34:07;15.40;99.90
1391;DHT22;690;51.454;7.194;2024-03-17T11:36:52;15.60;99.90
1391;DHT22;690;51.454;7.194;2024-03-17T11:39:19;15.70;99.90
1391;DHT22;690;51.454;7.194;2024-03-17T11:41:48;15.80;99.90
1391;DHT22;690;51.454;7.194;2024-03-17T11:44:15;15.80;99.90
1391;DHT22;690;51.454;7.194;2024-03-17T11:46:44;15.90;99.90
1391;DHT22;690;51.454;7.194;2024-03-17T11:49:18;15.90;99.90
1391;DHT22;690;51.454;7.194;2024-03-17T11:51:46;16.00;99.90
1391;DHT22;690;51.454;7.194;2024-03-17T11:54:14;16.10;99.90
1391;DHT22;690;51.454;7.194;2024-03-17T11:56:45;16.30;99.90
1391;DHT22;690;51.454;7.194;2024-03-17T11:59:13;16.50;99.90
1391;DHT22;690;51.454;7.194;2024-03-17T12:01:43;16.50;99.90
1391;DHT22;690;51.454;7.194;2024-03-17T12:04:10;16.60;99.90
1391;DHT22;690;51.454;7.194;2024-03-17T12:06:38;16.60;99.90
1391;DHT22;690;51.454;7.194;2024-03-17T12:09:19;16.70;99.90
1391;DHT22;690;51.454;7.194;2024-03-17T12:11:50;16.80;99.90
1391;DHT22;690;51.454;7.194;2024-03-17T12:14:19;16.80;99.90
1391;DHT22;690;51.454;7.194;2024-03-17T12:16:47;16.70;99.90
1391;DHT22;690;51.454;7.194;2024-03-17T12:19:14;16.30;99.90
1391;DHT22;690;51.454;7.194;2024-03-17T12:21:44;15.90;99.90
1391;DHT22;690;51.454;7.194;2024-03-17T12:24:15;15.60;99.90
1391;DHT22;690;51.454;7.194;2024-03-17T12:26:43;15.60;99.90
1391;DHT22;690;51.454;7.194;2024-03-17T12:29:28;15.60;99.90
1391;DHT22;690;51.454;7.194;2024-03-17T12:31:59;15.80;99.90
1391;DHT22;690;51.454;7.194;2024-03-17T12:34:28;15.90;99.90
1391;DHT22;690;51.454;7.194;2024-03-17T12:36:57;15.70;99.90
1391;DHT22;690;51.454;7.194;2024-03-17T12:39:24;15.50;99.90
1391;DHT22;690;51.454;7.194;2024-03-17T12:42:08;15.40;99.90
1391;DHT22;690;51.454;7.194;2024-03-17T12:44:37;15.60;99.90
1391;DHT22;690;51.454;7.194;2024-03-17T12:47:08;15.70;99.90
1391;DHT22;690;51.454;7.194;2024-03-17T12:49:34;15.90;99.90
1391;DHT22;690;51.454;7.194;2024-03-17T12:52:02;16.00;99.90
1391;DHT22;690;51.454;7.194;2024-03-17T12:54:28;16.10;99.90
1391;DHT22;690;51.454;7.194;2024-03-17T12:57:05;16.20;99.90
1391;DHT22;690;51.454;7.194;2024-03-17T12:59:52;16.30;99.90
1391;DHT22;690;51.454;7.194;2024-03-17T13:02:41;16.20;99.90
1391;DHT22;690;51.454;7.194;2024-03-17T13:05:14;16.00;99.90
1391;DHT22;690;51.454;7.194;2024-03-17T13:07:42;15.90;99.90
1391;DHT22;690;51.454;7.194;2024-03-17T13:10:10;15.90;99.90
1391;DHT22;690;51.454;7.194;2024-03-17T13:12:38;16.00;99.90
1391;DHT22;690;51.454;7.194;2024-03-17T13:15:09;16.10;99.90
1391;DHT22;690;51.454;7.194;2024-03-17T13:17:37;16.20;99.90
1391;DHT22;690;51.454;7.194;2024-03-17T13:20:06;16.20;99.90
1391;DHT22;690;51.454;7.194;2024-03-17T13:22:37;16.10;99.90
1391;DHT22;690;51.454;7.194;2024-03-17T13:25:08;15.90;99.90
1391;DHT22;690;51.454;7.194;2024-03-17T13:27:35;15.90;99.90
1391;DHT22;690;51.454;7.194;2024-03-17T13:30:03;15.80;99.90
1391;DHT22;690;51.454;7.194;2024-03-17T13:32:33;15.70;99.90
1391;DHT22;690;51.454;7.194;2024-03-17T13:35:00;15.60;99.90
1391;DHT22;690;51.454;7.194;2024-03-17T13:37:27;15.70;99.90
1391;DHT22;690;51.454;7.194;2024-03-17T13:39:53;15.80;99.90
1391;DHT22;690;51.454;7.194;2024-03-17T13:42:21;16.00;99.90
1391;DHT22;690;51.454;7.194;2024-03-17T13:44:48;16.00;99.90
1391;DHT22;690;51.454;7.194;2024-03-17T13:47:15;15.90;99.90
1391;DHT22;690;51.454;7.194;2024-03-17T13:49:44;15.90;99.90
1391;DHT22;690;51.454;7.194;2024-03-17T13:52:12;15.90;99.90
1391;DHT22;690;51.454;7.194;2024-03-17T13:54:39;15.90;99.90
1391;DHT22;690;51.454;7.194;2024-03-17T13:57:06;15.90;99.90
1391;DHT22;690;51.454;7.194;2024-03-17T13:59:33;15.60;99.90
1391;DHT22;690;51.454;7.194;2024-03-17T14:02:01;15.50;99.90
1391;DHT22;690;51.454;7.194;2024-03-17T14:04:30;15.50;99.90
1391;DHT22;690;51.454;7.194;2024-03-17T14:06:58;15.40;99.90
1391;DHT22;690;51.454;7.194;2024-03-17T14:09:30;15.30;99.90
1391;DHT22;690;51.454;7.194;2024-03-17T14:11:57;15.30;99.90
1391;DHT22;690;51.454;7.194;2024-03-17T14:14:24;15.30;99.90
1391;DHT22;690;51.454;7.194;2024-03-17T14:16:51;15.20;99.90
1391;DHT22;690;51.454;7.194;2024-03-17T14:19:19;15.00;99.90
1391;DHT22;690;51.454;7.194;2024-03-17T14:21:46;14.80;99.90
1391;DHT22;690;51.454;7.194;2024-03-17T14:24:14;14.60;99.90
1391;DHT22;690;51.454;7.194;2024-03-17T14:26:41;14.50;99.90
1391;DHT22;690;51.454;7.194;2024-03-17T14:29:08;14.40;99.90
1391;DHT22;690;51.454;7.194;2024-03-17T14:31:35;14.30;99.90
1391;DHT22;690;51.454;7.194;2024-03-17T14:34:03;14.30;99.90
1391;DHT22;690;51.454;7.194;2024-03-17T14:36:31;14.30;99.90
1391;DHT22;690;51.454;7.194;2024-03-17T14:38:58;14.30;99.90
1391;DHT22;690;51.454;7.194;2024-03-17T14:41:29;14.30;99.90
1391;DHT22;690;51.454;7.194;2024-03-17T14:43:56;14.30;99.90
1391;DHT22;690;51.454;7.194;2024-03-17T14:46:23;14.20;99.90
1391;DHT22;690;51.454;7.194;2024-03-17T14:48:51;14.10;99.90
1391;DHT22;690;51.454;7.194;2024-03-17T14:51:18;14.10;99.90
1391;DHT22;690;51.454;7.194;2024-03-17T14:53:46;14.10;99.90
1391;DHT22;690;51.454;7.194;2024-03-17T14:56:15;14.30;99.90
1391;DHT22;690;51.454;7.194;2024-03-17T14:58:44;14.40;99.90
1391;DHT22;690;51.454;7.194;2024-03-17T15:01:13;14.50;99.90
1391;DHT22;690;51.454;7.194;2024-03-17T15:03:40;14.50;99.90
1391;DHT22;690;51.454;7.194;2024-03-17T15:06:11;14.60;99.90
1391;DHT22;690;51.454;7.194;2024-03-17T15:08:38;14.60;99.90
1391;DHT22;690;51.454;7.194;2024-03-17T15:11:05;14.50;99.90
1391;DHT22;690;51.454;7.194;2024-03-17T15:13:33;14.30;99.90
1391;DHT22;690;51.454;7.194;2024-03-17T15:16:02;14.20;99.90
1391;DHT22;690;51.454;7.194;2024-03-17T15:18:30;14.10;99.90
1391;DHT22;690;51.454;7.194;2024-03-17T15:20:57;14.00;99.90
1391;DHT22;690;51.454;7.194;2024-03-17T15:23:26;14.00;99.90
1391;DHT22;690;51.454;7.194;2024-03-17T15:25:59;14.00;99.90
1391;DHT22;690;51.454;7.194;2024-03-17T15:28:27;14.00;99.90
1391;DHT22;690;51.454;7.194;2024-03-17T15:30:55;14.00;99.90
1391;DHT22;690;51.454;7.194;2024-03-17T15:33:27;14.00;99.90
1391;DHT22;690;51.454;7.194;2024-03-17T15:35:54;14.00;99.90
1391;DHT22;690;51.454;7.194;2024-03-17T15:38:21;14.00;99.90
1391;DHT22;690;51.454;7.194;2024-03-17T15:40:48;14.00;99.90
1391;DHT22;690;51.454;7.194;2024-03-17T15:43:15;14.00;99.90
1391;DHT22;690;51.454;7.194;2024-03-17T15:45:43;13.90;99.90
1391;DHT22;690;51.454;7.194;2024-03-17T15:48:10;13.90;99.90
1391;DHT22;690;51.454;7.194;2024-03-17T15:50:38;13.70;99.90
1391;DHT22;690;51.454;7.194;2024-03-17T15:53:05;13.70;99.90
1391;DHT22;690;51.454;7.194;2024-03-17T15:55:32;13.60;99.90
1391;DHT22;690;51.454;7.194;2024-03-17T15:57:59;13.60;99.90
1391;DHT22;690;51.454;7.194;2024-03-17T16:00:26;13.50;99.90
1391;DHT22;690;51.454;7.194;2024-03-17T16:02:53;13.60;99.90
1391;DHT22;690;51.454;7.194;2024-03-17T16:05:22;13.60;99.90
1391;DHT22;690;51.454;7.194;2024-03-17T16:07:50;13.70;99.90
1391;DHT22;690;51.454;7.194;2024-03-17T16:10:20;13.80;99.90
1391;DHT22;690;51.454;7.194;2024-03-17T16:12:49;13.80;99.90
1391;DHT22;690;51.454;7.194;2024-03-17T16:15:17;13.70;99.90
1391;DHT22;690;51.454;7.194;2024-03-17T16:17:44;13.70;99.90
1391;DHT22;690;51.454;7.194;2024-03-17T16:20:57;13.70;99.90
1391;DHT22;690;51.454;7.194;2024-03-17T16:23:29;13.70;99.90
1391;DHT22;690;51.454;7.194;2024-03-17T16:25:56;13.80;99.90
1391;DHT22;690;51.454;7.194;2024-03-17T16:28:24;13.80;99.90
1391;DHT22;690;51.454;7.194;2024-03-17T16:30:53;13.80;99.90
1391;DHT22;690;51.454;7.194;2024-03-17T16:33:21;13.80;99.90
1391;DHT22;690;51.454;7.194;2024-03-17T16:35:48;13.80;99.90
1391;DHT22;690;51.454;7.194;2024-03-17T16:38:15;13.80;99.90
1391;DHT22;690;51.454;7.194;2024-03-17T16:40:43;13.80;99.90